sensor_id;sensor_type;location;lat;lon;timestamp;P1;durP1;ratioP1;P2;durP2;ratioP2
52396;SDS011;38322;53.108;6.308;2024-01-06T06:02:00;18.50;;;11.77;;
52396;SDS011;38322;53.108;6.308;2024-01-06T06:04:26;16.58;;;12.48;;
52396;SDS011;38322;53.108;6.308;2024-01-06T06:06:52;19.58;;;11.57;;
52396;SDS011;38322;53.108;6.308;2024-01-06T06:09:18;18.23;;;12.30;;
52396;SDS011;38322;53.108;6.308;2024-01-06T06:11:46;15.63;;;11.20;;
52396;SDS011;38322;53.108;6.308;2024-01-06T06:14:11;18.10;;;12.40;;
52396;SDS011;38322;53.108;6.308;2024-01-06T06:16:38;15.20;;;11.05;;
52396;SDS011;38322;53.108;6.308;2024-01-06T06:19:04;14.15;;;11.50;;
52396;SDS011;38322;53.108;6.308;2024-01-06T06:21:30;17.27;;;13.57;;
52396;SDS011;38322;53.108;6.308;2024-01-06T06:23:55;16.48;;;11.80;;
52396;SDS011;38322;53.108;6.308;2024-01-06T06:26:21;15.80;;;11.13;;
52396;SDS011;38322;53.108;6.308;2024-01-06T06:28:47;19.38;;;13.10;;
52396;SDS011;38322;53.108;6.308;2024-01-06T06:31:13;19.17;;;13.10;;
52396;SDS011;38322;53.108;6.308;2024-01-06T06:33:39;13.80;;;10.02;;
52396;SDS011;38322;53.108;6.308;2024-01-06T06:36:05;16.60;;;12.82;;
52396;SDS011;38322;53.108;6.308;2024-01-06T06:38:31;14.13;;;10.75;;
52396;SDS011;38322;53.108;6.308;2024-01-06T06:40:57;15.65;;;12.15;;
52396;SDS011;38322;53.108;6.308;2024-01-06T06:43:23;16.80;;;12.00;;
52396;SDS011;38322;53.108;6.308;2024-01-06T06:45:49;17.30;;;12.13;;
52396;SDS011;38322;53.108;6.308;2024-01-06T06:48:14;23.08;;;12.27;;
52396;SDS011;38322;53.108;6.308;2024-01-06T06:50:40;17.52;;;12.98;;
52396;SDS011;38322;53.108;6.308;2024-01-06T06:53:07;18.58;;;11.88;;
52396;SDS011;38322;53.108;6.308;2024-01-06T06:55:33;17.67;;;11.80;;
52396;SDS011;38322;53.108;6.308;2024-01-06T06:57:59;21.75;;;13.18;;
52396;SDS011;38322;53.108;6.308;2024-01-06T07:00:25;21.50;;;13.70;;
52396;SDS011;38322;53.108;6.308;2024-01-06T07:02:50;19.23;;;12.07;;
52396;SDS011;38322;53.108;6.308;2024-01-06T07:05:16;16.65;;;12.18;;
52396;SDS011;38322;53.108;6.308;2024-01-06T07:07:43;17.92;;;11.88;;
52396;SDS011;38322;53.108;6.308;2024-01-06T07:10:12;19.58;;;13.82;;
52396;SDS011;38322;53.108;6.308;2024-01-06T07:12:38;20.55;;;13.80;;
52396;SDS011;38322;53.108;6.308;2024-01-06T07:15:04;19.60;;;13.88;;
52396;SDS011;38322;53.108;6.308;2024-01-06T07:17:30;17.30;;;12.43;;
52396;SDS011;38322;53.108;6.308;2024-01-06T07:19:56;18.55;;;12.85;;
52396;SDS011;38322;53.108;6.308;2024-01-06T07:22:22;19.25;;;14.57;;
52396;SDS011;38322;53.108;6.308;2024-01-06T07:24:48;26.27;;;14.15;;
52396;SDS011;38322;53.108;6.308;2024-01-06T07:27:13;20.40;;;15.00;;
52396;SDS011;38322;53.108;6.308;2024-01-06T07:29:40;19.50;;;13.80;;
52396;SDS011;38322;53.108;6.308;2024-01-06T07:32:06;20.58;;;13.57;;
52396;SDS011;38322;53.108;6.308;2024-01-06T07:34:32;20.77;;;15.63;;
52396;SDS011;38322;53.108;6.308;2024-01-06T07:36:58;19.70;;;14.75;;
52396;SDS011;38322;53.108;6.308;2024-01-06T07:39:23;24.08;;;15.57;;
52396;SDS011;38322;53.108;6.308;2024-01-06T07:41:50;22.23;;;15.57;;
52396;SDS011;38322;53.108;6.308;2024-01-06T07:44:16;20.73;;;14.07;;
52396;SDS011;38322;53.108;6.308;2024-01-06T07:46:47;23.98;;;13.98;;
52396;SDS011;38322;53.108;6.308;2024-01-06T07:49:13;21.77;;;14.38;;
52396;SDS011;38322;53.108;6.308;2024-01-06T07:51:40;23.15;;;16.42;;
52396;SDS011;38322;53.108;6.308;2024-01-06T07:54:06;26.25;;;16.08;;
52396;SDS011;38322;53.108;6.308;2024-01-06T07:56:34;27.08;;;16.02;;
52396;SDS011;38322;53.108;6.308;2024-01-06T07:59:01;23.48;;;15.02;;
52396;SDS011;38322;53.108;6.308;2024-01-06T08:01:27;23.83;;;16.70;;
52396;SDS011;38322;53.108;6.308;2024-01-06T08:03:53;23.23;;;14.63;;
52396;SDS011;38322;53.108;6.308;2024-01-06T08:06:19;23.27;;;16.15;;
52396;SDS011;38322;53.108;6.308;2024-01-06T08:08:45;21.00;;;13.73;;
52396;SDS011;38322;53.108;6.308;2024-01-06T08:11:12;21.75;;;15.85;;
52396;SDS011;38322;53.108;6.308;2024-01-06T08:13:38;22.02;;;15.60;;
52396;SDS011;38322;53.108;6.308;2024-01-06T08:16:04;23.52;;;16.75;;
52396;SDS011;38322;53.108;6.308;2024-01-06T08:18:30;24.67;;;16.48;;
52396;SDS011;38322;53.108;6.308;2024-01-06T08:20:56;24.02;;;15.57;;
52396;SDS011;38322;53.108;6.308;2024-01-06T08:23:22;26.15;;;16.60;;
52396;SDS011;38322;53.108;6.308;2024-01-06T08:25:48;22.05;;;16.85;;
52396;SDS011;38322;53.108;6.308;2024-01-06T08:28:14;25.23;;;16.50;;
52396;SDS011;38322;53.108;6.308;2024-01-06T08:30:40;20.88;;;15.32;;
52396;SDS011;38322;53.108;6.308;2024-01-06T08:33:06;21.65;;;14.48;;
52396;SDS011;38322;53.108;6.308;2024-01-06T08:35:32;24.98;;;15.23;;
52396;SDS011;38322;53.108;6.308;2024-01-06T08:37:58;23.25;;;16.77;;
52396;SDS011;38322;53.108;6.308;2024-01-06T08:40:23;22.40;;;16.70;;
52396;SDS011;38322;53.108;6.308;2024-01-06T08:42:49;25.60;;;16.20;;
52396;SDS011;38322;53.108;6.308;2024-01-06T08:45:15;21.85;;;15.93;;
52396;SDS011;38322;53.108;6.308;2024-01-06T08:47:41;29.52;;;17.45;;
52396;SDS011;38322;53.108;6.308;2024-01-06T08:50:07;23.38;;;15.45;;
52396;SDS011;38322;53.108;6.308;2024-01-06T08:52:33;23.10;;;15.88;;
52396;SDS011;38322;53.108;6.308;2024-01-06T08:54:58;26.88;;;18.35;;
52396;SDS011;38322;53.108;6.308;2024-01-06T08:57:24;25.50;;;17.45;;
52396;SDS011;38322;53.108;6.308;2024-01-06T08:59:50;25.13;;;17.60;;
52396;SDS011;38322;53.108;6.308;2024-01-06T09:02:16;24.83;;;17.20;;
52396;SDS011;38322;53.108;6.308;2024-01-06T09:04:42;26.20;;;18.98;;
52396;SDS011;38322;53.108;6.308;2024-01-06T09:07:08;28.30;;;18.20;;
52396;SDS011;38322;53.108;6.308;2024-01-06T09:09:34;22.60;;;16.83;;
52396;SDS011;38322;53.108;6.308;2024-01-06T09:12:00;21.50;;;15.48;;
52396;SDS011;38322;53.108;6.308;2024-01-06T09:14:26;24.73;;;18.15;;
52396;SDS011;38322;53.108;6.308;2024-01-06T09:16:52;23.92;;;15.55;;
52396;SDS011;38322;53.108;6.308;2024-01-06T09:19:18;23.73;;;17.30;;
52396;SDS011;38322;53.108;6.308;2024-01-06T09:21:44;26.75;;;18.80;;
52396;SDS011;38322;53.108;6.308;2024-01-06T09:24:10;23.77;;;16.85;;
52396;SDS011;38322;53.108;6.308;2024-01-06T09:26:35;20.52;;;14.18;;
52396;SDS011;38322;53.108;6.308;2024-01-06T09:29:01;20.70;;;15.23;;
52396;SDS011;38322;53.108;6.308;2024-01-06T09:31:29;23.60;;;15.70;;
52396;SDS011;38322;53.108;6.308;2024-01-06T09:33:55;22.85;;;15.85;;
52396;SDS011;38322;53.108;6.308;2024-01-06T09:36:21;21.95;;;14.20;;
52396;SDS011;38322;53.108;6.308;2024-01-06T09:38:47;23.05;;;16.10;;
52396;SDS011;38322;53.108;6.308;2024-01-06T09:41:12;23.02;;;14.85;;
52396;SDS011;38322;53.108;6.308;2024-01-06T09:43:38;21.05;;;16.27;;
52396;SDS011;38322;53.108;6.308;2024-01-06T09:46:06;22.25;;;14.18;;
52396;SDS011;38322;53.108;6.308;2024-01-06T09:48:39;25.38;;;15.40;;
52396;SDS011;38322;53.108;6.308;2024-01-06T09:51:06;27.90;;;14.73;;
52396;SDS011;38322;53.108;6.308;2024-01-06T09:53:36;20.60;;;14.15;;
52396;SDS011;38322;53.108;6.308;2024-01-06T09:56:08;19.88;;;13.82;;
52396;SDS011;38322;53.108;6.308;2024-01-06T09:58:34;19.75;;;14.02;;
52396;SDS011;38322;53.108;6.308;2024-01-06T10:01:02;18.50;;;13.27;;
52396;SDS011;38322;53.108;6.308;2024-01-06T10:03:29;18.73;;;12.95;;
52396;SDS011;38322;53.108;6.308;2024-01-06T10:05:55;15.88;;;11.63;;
52396;SDS011;38322;53.108;6.308;2024-01-06T10:08:25;17.58;;;12.23;;
52396;SDS011;38322;53.108;6.308;2024-01-06T10:10:51;18.63;;;12.52;;
52396;SDS011;38322;53.108;6.308;2024-01-06T10:13:17;16.92;;;12.30;;
52396;SDS011;38322;53.108;6.308;2024-01-06T10:15:43;16.13;;;12.15;;
52396;SDS011;38322;53.108;6.308;2024-01-06T10:18:09;18.20;;;12.60;;
52396;SDS011;38322;53.108;6.308;2024-01-06T10:20:35;17.10;;;11.98;;
52396;SDS011;38322;53.108;6.308;2024-01-06T10:23:04;18.90;;;12.98;;
52396;SDS011;38322;53.108;6.308;2024-01-06T10:25:31;17.70;;;11.50;;
52396;SDS011;38322;53.108;6.308;2024-01-06T10:28:00;14.02;;;10.95;;
52396;SDS011;38322;53.108;6.308;2024-01-06T10:30:26;15.38;;;11.43;;
52396;SDS011;38322;53.108;6.308;2024-01-06T10:32:52;15.63;;;11.68;;
52396;SDS011;38322;53.108;6.308;2024-01-06T10:35:18;18.38;;;12.77;;
52396;SDS011;38322;53.108;6.308;2024-01-06T10:37:45;17.02;;;12.30;;
52396;SDS011;38322;53.108;6.308;2024-01-06T10:40:12;18.35;;;12.75;;
52396;SDS011;38322;53.108;6.308;2024-01-06T10:42:41;17.13;;;13.00;;
52396;SDS011;38322;53.108;6.308;2024-01-06T10:45:09;14.88;;;11.32;;
52396;SDS011;38322;53.108;6.308;2024-01-06T10:47:36;15.88;;;11.73;;
52396;SDS011;38322;53.108;6.308;2024-01-06T10:50:04;14.98;;;12.27;;
52396;SDS011;38322;53.108;6.308;2024-01-06T10:52:31;13.15;;;11.75;;
52396;SDS011;38322;53.108;6.308;2024-01-06T10:54:57;16.58;;;11.40;;
52396;SDS011;38322;53.108;6.308;2024-01-06T10:57:23;17.38;;;12.32;;
52396;SDS011;38322;53.108;6.308;2024-01-06T10:59:50;14.93;;;10.82;;
52396;SDS011;38322;53.108;6.308;2024-01-06T11:02:17;17.52;;;12.65;;
52396;SDS011;38322;53.108;6.308;2024-01-06T11:04:45;18.83;;;11.85;;
52396;SDS011;38322;53.108;6.308;2024-01-06T11:07:13;14.35;;;10.80;;
52396;SDS011;38322;53.108;6.308;2024-01-06T11:09:47;17.08;;;11.43;;
52396;SDS011;38322;53.108;6.308;2024-01-06T11:12:25;15.80;;;11.65;;
52396;SDS011;38322;53.108;6.308;2024-01-06T11:14:51;16.73;;;12.40;;
52396;SDS011;38322;53.108;6.308;2024-01-06T11:20:21;15.73;;;10.82;;
52396;SDS011;38322;53.108;6.308;2024-01-06T11:22:48;14.38;;;9.57;;
52396;SDS011;38322;53.108;6.308;2024-01-06T11:25:15;15.35;;;11.32;;
52396;SDS011;38322;53.108;6.308;2024-01-06T11:27:44;14.18;;;10.55;;
52396;SDS011;38322;53.108;6.308;2024-01-06T11:30:24;13.85;;;11.57;;
52396;SDS011;38322;53.108;6.308;2024-01-06T11:32:51;12.65;;;10.75;;
52396;SDS011;38322;53.108;6.308;2024-01-06T11:35:19;18.83;;;11.60;;
52396;SDS011;38322;53.108;6.308;2024-01-06T11:42:47;13.43;;;10.13;;
52396;SDS011;38322;53.108;6.308;2024-01-06T11:45:21;13.48;;;9.60;;
52396;SDS011;38322;53.108;6.308;2024-01-06T11:47:47;12.07;;;10.25;;
52396;SDS011;38322;53.108;6.308;2024-01-06T11:50:14;14.23;;;11.25;;
52396;SDS011;38322;53.108;6.308;2024-01-06T11:52:40;15.60;;;10.50;;
52396;SDS011;38322;53.108;6.308;2024-01-06T11:55:06;13.95;;;10.00;;
52396;SDS011;38322;53.108;6.308;2024-01-06T11:57:34;11.57;;;9.57;;
52396;SDS011;38322;53.108;6.308;2024-01-06T12:00:00;14.05;;;10.05;;
52396;SDS011;38322;53.108;6.308;2024-01-06T12:02:27;10.82;;;8.13;;
52396;SDS011;38322;53.108;6.308;2024-01-06T12:04:53;11.38;;;7.82;;
52396;SDS011;38322;53.108;6.308;2024-01-06T12:07:20;15.77;;;9.52;;
52396;SDS011;38322;53.108;6.308;2024-01-06T12:09:48;12.45;;;8.68;;
52396;SDS011;38322;53.108;6.308;2024-01-06T12:12:15;11.18;;;7.97;;
52396;SDS011;38322;53.108;6.308;2024-01-06T12:14:42;11.60;;;10.38;;
52396;SDS011;38322;53.108;6.308;2024-01-06T12:17:08;11.07;;;8.73;;
52396;SDS011;38322;53.108;6.308;2024-01-06T12:19:35;13.90;;;10.77;;
52396;SDS011;38322;53.108;6.308;2024-01-06T12:22:01;14.35;;;10.73;;
52396;SDS011;38322;53.108;6.308;2024-01-06T12:24:28;12.55;;;9.15;;
52396;SDS011;38322;53.108;6.308;2024-01-06T12:26:56;15.18;;;9.77;;
52396;SDS011;38322;53.108;6.308;2024-01-06T12:29:23;11.43;;;9.50;;
52396;SDS011;38322;53.108;6.308;2024-01-06T12:31:54;13.27;;;9.88;;
52396;SDS011;38322;53.108;6.308;2024-01-06T12:34:20;12.27;;;9.88;;
52396;SDS011;38322;53.108;6.308;2024-01-06T12:36:47;12.73;;;9.23;;
52396;SDS011;38322;53.108;6.308;2024-01-06T12:39:13;12.27;;;9.35;;
52396;SDS011;38322;53.108;6.308;2024-01-06T12:41:40;12.02;;;8.27;;
52396;SDS011;38322;53.108;6.308;2024-01-06T12:44:06;9.80;;;7.55;;
52396;SDS011;38322;53.108;6.308;2024-01-06T12:46:33;9.23;;;7.70;;
52396;SDS011;38322;53.108;6.308;2024-01-06T12:48:59;7.25;;;5.85;;
52396;SDS011;38322;53.108;6.308;2024-01-06T12:51:25;10.60;;;7.90;;
52396;SDS011;38322;53.108;6.308;2024-01-06T12:53:51;10.07;;;7.45;;
52396;SDS011;38322;53.108;6.308;2024-01-06T12:56:17;11.88;;;7.45;;
52396;SDS011;38322;53.108;6.308;2024-01-06T12:58:43;11.98;;;8.32;;
52396;SDS011;38322;53.108;6.308;2024-01-06T13:01:09;11.60;;;8.05;;
52396;SDS011;38322;53.108;6.308;2024-01-06T13:03:35;13.80;;;9.63;;
52396;SDS011;38322;53.108;6.308;2024-01-06T13:06:01;9.93;;;7.60;;
52396;SDS011;38322;53.108;6.308;2024-01-06T13:08:28;10.32;;;7.80;;
52396;SDS011;38322;53.108;6.308;2024-01-06T13:10:55;10.40;;;8.75;;
52396;SDS011;38322;53.108;6.308;2024-01-06T13:13:21;15.25;;;9.50;;
52396;SDS011;38322;53.108;6.308;2024-01-06T13:15:47;13.57;;;9.52;;
52396;SDS011;38322;53.108;6.308;2024-01-06T13:18:13;11.30;;;7.68;;
52396;SDS011;38322;53.108;6.308;2024-01-06T13:20:41;9.32;;;7.72;;
52396;SDS011;38322;53.108;6.308;2024-01-06T13:23:08;12.52;;;7.90;;
52396;SDS011;38322;53.108;6.308;2024-01-06T13:25:36;12.18;;;7.90;;
52396;SDS011;38322;53.108;6.308;2024-01-06T13:28:05;12.70;;;7.47;;
52396;SDS011;38322;53.108;6.308;2024-01-06T13:30:31;12.95;;;9.23;;
52396;SDS011;38322;53.108;6.308;2024-01-06T13:32:57;14.32;;;9.00;;
52396;SDS011;38322;53.108;6.308;2024-01-06T13:35:24;9.98;;;8.00;;
52396;SDS011;38322;53.108;6.308;2024-01-06T13:37:51;12.35;;;7.93;;
52396;SDS011;38322;53.108;6.308;2024-01-06T13:40:17;10.85;;;7.57;;
52396;SDS011;38322;53.108;6.308;2024-01-06T13:42:46;10.35;;;8.10;;
52396;SDS011;38322;53.108;6.308;2024-01-06T13:45:12;11.77;;;7.88;;
52396;SDS011;38322;53.108;6.308;2024-01-06T13:47:38;14.30;;;9.88;;
52396;SDS011;38322;53.108;6.308;2024-01-06T13:52:37;11.13;;;7.82;;
52396;SDS011;38322;53.108;6.308;2024-01-06T13:55:04;11.70;;;7.78;;
52396;SDS011;38322;53.108;6.308;2024-01-06T13:57:31;12.48;;;8.85;;
52396;SDS011;38322;53.108;6.308;2024-01-06T13:59:57;12.48;;;8.60;;
52396;SDS011;38322;53.108;6.308;2024-01-06T14:02:23;13.60;;;9.75;;
52396;SDS011;38322;53.108;6.308;2024-01-06T14:04:50;13.27;;;8.95;;
52396;SDS011;38322;53.108;6.308;2024-01-06T14:07:16;13.85;;;8.98;;
52396;SDS011;38322;53.108;6.308;2024-01-06T14:09:48;13.00;;;8.40;;
52396;SDS011;38322;53.108;6.308;2024-01-06T14:12:14;11.25;;;7.88;;
52396;SDS011;38322;53.108;6.308;2024-01-06T14:14:40;12.65;;;9.70;;
52396;SDS011;38322;53.108;6.308;2024-01-06T14:17:07;15.18;;;8.65;;
52396;SDS011;38322;53.108;6.308;2024-01-06T14:19:33;12.27;;;8.57;;
52396;SDS011;38322;53.108;6.308;2024-01-06T14:21:59;13.43;;;8.65;;
52396;SDS011;38322;53.108;6.308;2024-01-06T14:24:25;11.73;;;8.40;;
52396;SDS011;38322;53.108;6.308;2024-01-06T14:26:52;16.58;;;10.95;;
52396;SDS011;38322;53.108;6.308;2024-01-06T14:29:20;14.43;;;9.65;;
52396;SDS011;38322;53.108;6.308;2024-01-06T14:31:46;15.30;;;10.10;;
52396;SDS011;38322;53.108;6.308;2024-01-06T14:34:12;13.43;;;9.48;;
52396;SDS011;38322;53.108;6.308;2024-01-06T14:36:38;13.88;;;9.40;;
52396;SDS011;38322;53.108;6.308;2024-01-06T14:39:12;10.98;;;8.23;;
52396;SDS011;38322;53.108;6.308;2024-01-06T14:41:39;12.95;;;9.55;;
52396;SDS011;38322;53.108;6.308;2024-01-06T14:44:06;14.35;;;9.20;;
52396;SDS011;38322;53.108;6.308;2024-01-06T14:46:32;13.50;;;9.98;;
52396;SDS011;38322;53.108;6.308;2024-01-06T14:49:01;17.15;;;9.93;;
52396;SDS011;38322;53.108;6.308;2024-01-06T14:51:28;17.17;;;10.82;;
52396;SDS011;38322;53.108;6.308;2024-01-06T14:53:54;15.98;;;10.38;;
52396;SDS011;38322;53.108;6.308;2024-01-06T14:56:22;15.27;;;10.60;;
52396;SDS011;38322;53.108;6.308;2024-01-06T14:58:49;13.70;;;9.95;;
52396;SDS011;38322;53.108;6.308;2024-01-06T15:01:15;13.77;;;10.48;;
52396;SDS011;38322;53.108;6.308;2024-01-06T15:03:41;14.25;;;11.48;;
52396;SDS011;38322;53.108;6.308;2024-01-06T15:06:07;12.85;;;9.65;;
52396;SDS011;38322;53.108;6.308;2024-01-06T15:08:33;16.23;;;10.13;;
52396;SDS011;38322;53.108;6.308;2024-01-06T15:10:59;13.30;;;9.38;;
52396;SDS011;38322;53.108;6.308;2024-01-06T15:13:27;14.00;;;9.93;;
52396;SDS011;38322;53.108;6.308;2024-01-06T15:15:54;14.38;;;9.65;;
52396;SDS011;38322;53.108;6.308;2024-01-06T15:18:20;14.65;;;10.13;;
52396;SDS011;38322;53.108;6.308;2024-01-06T15:20:47;19.10;;;11.00;;
52396;SDS011;38322;53.108;6.308;2024-01-06T15:23:13;17.73;;;10.88;;
52396;SDS011;38322;53.108;6.308;2024-01-06T15:25:38;14.73;;;9.45;;
52396;SDS011;38322;53.108;6.308;2024-01-06T15:28:04;14.77;;;10.02;;
52396;SDS011;38322;53.108;6.308;2024-01-06T15:30:30;16.52;;;10.60;;
52396;SDS011;38322;53.108;6.308;2024-01-06T15:32:56;12.98;;;9.68;;
52396;SDS011;38322;53.108;6.308;2024-01-06T15:35:22;12.48;;;8.93;;
52396;SDS011;38322;53.108;6.308;2024-01-06T15:37:48;13.68;;;9.77;;
52396;SDS011;38322;53.108;6.308;2024-01-06T15:40:14;14.15;;;8.88;;
52396;SDS011;38322;53.108;6.308;2024-01-06T15:42:41;16.02;;;10.30;;
52396;SDS011;38322;53.108;6.308;2024-01-06T15:45:08;14.70;;;9.32;;
52396;SDS011;38322;53.108;6.308;2024-01-06T15:47:36;14.93;;;9.75;;
52396;SDS011;38322;53.108;6.308;2024-01-06T15:50:03;16.17;;;10.32;;
52396;SDS011;38322;53.108;6.308;2024-01-06T15:52:32;14.75;;;9.55;;
52396;SDS011;38322;53.108;6.308;2024-01-06T15:54:59;15.90;;;10.48;;
52396;SDS011;38322;53.108;6.308;2024-01-06T15:57:25;16.67;;;10.50;;
52396;SDS011;38322;53.108;6.308;2024-01-06T15:59:53;13.75;;;9.77;;
52396;SDS011;38322;53.108;6.308;2024-01-06T16:02:20;14.48;;;10.90;;
52396;SDS011;38322;53.108;6.308;2024-01-06T16:04:46;18.08;;;11.13;;
52396;SDS011;38322;53.108;6.308;2024-01-06T16:07:11;14.43;;;10.13;;
52396;SDS011;38322;53.108;6.308;2024-01-06T16:09:37;15.20;;;11.35;;
52396;SDS011;38322;53.108;6.308;2024-01-06T16:12:04;16.27;;;10.40;;
52396;SDS011;38322;53.108;6.308;2024-01-06T16:14:31;14.65;;;10.63;;
52396;SDS011;38322;53.108;6.308;2024-01-06T16:16:58;20.08;;;11.25;;
52396;SDS011;38322;53.108;6.308;2024-01-06T16:19:28;16.92;;;11.77;;
52396;SDS011;38322;53.108;6.308;2024-01-06T16:21:57;19.33;;;13.32;;
52396;SDS011;38322;53.108;6.308;2024-01-06T16:24:25;22.73;;;13.65;;
52396;SDS011;38322;53.108;6.308;2024-01-06T16:26:54;18.15;;;12.32;;
52396;SDS011;38322;53.108;6.308;2024-01-06T16:29:20;15.32;;;11.20;;
52396;SDS011;38322;53.108;6.308;2024-01-06T16:31:46;15.25;;;10.60;;
52396;SDS011;38322;53.108;6.308;2024-01-06T16:34:11;16.00;;;11.30;;
52396;SDS011;38322;53.108;6.308;2024-01-06T16:36:37;18.08;;;10.82;;
52396;SDS011;38322;53.108;6.308;2024-01-06T16:39:03;15.07;;;9.98;;
52396;SDS011;38322;53.108;6.308;2024-01-06T16:41:29;15.52;;;10.02;;
52396;SDS011;38322;53.108;6.308;2024-01-06T16:43:55;16.80;;;11.95;;
52396;SDS011;38322;53.108;6.308;2024-01-06T16:46:21;13.85;;;10.02;;
52396;SDS011;38322;53.108;6.308;2024-01-06T16:48:47;16.17;;;9.00;;
52396;SDS011;38322;53.108;6.308;2024-01-06T16:51:14;17.27;;;11.15;;
52396;SDS011;38322;53.108;6.308;2024-01-06T16:53:40;20.30;;;12.60;;
52396;SDS011;38322;53.108;6.308;2024-01-06T16:56:06;14.48;;;10.00;;
52396;SDS011;38322;53.108;6.308;2024-01-06T16:58:32;15.88;;;10.18;;
52396;SDS011;38322;53.108;6.308;2024-01-06T17:00:59;16.55;;;10.77;;
52396;SDS011;38322;53.108;6.308;2024-01-06T17:03:25;16.63;;;10.90;;
52396;SDS011;38322;53.108;6.308;2024-01-06T17:05:51;17.70;;;12.88;;
52396;SDS011;38322;53.108;6.308;2024-01-06T17:08:17;18.92;;;12.05;;
52396;SDS011;38322;53.108;6.308;2024-01-06T17:10:43;18.38;;;12.52;;
52396;SDS011;38322;53.108;6.308;2024-01-06T17:13:09;19.20;;;11.93;;
52396;SDS011;38322;53.108;6.308;2024-01-06T17:15:34;14.63;;;9.55;;
52396;SDS011;38322;53.108;6.308;2024-01-06T17:18:00;14.48;;;10.00;;
52396;SDS011;38322;53.108;6.308;2024-01-06T17:20:26;17.83;;;11.35;;
52396;SDS011;38322;53.108;6.308;2024-01-06T17:22:52;14.38;;;9.98;;
52396;SDS011;38322;53.108;6.308;2024-01-06T17:25:18;13.70;;;9.77;;
52396;SDS011;38322;53.108;6.308;2024-01-06T17:27:44;15.43;;;10.23;;
52396;SDS011;38322;53.108;6.308;2024-01-06T17:30:10;14.57;;;10.13;;
52396;SDS011;38322;53.108;6.308;2024-01-06T17:32:37;14.95;;;9.50;;
52396;SDS011;38322;53.108;6.308;2024-01-06T17:35:03;13.25;;;9.05;;
52396;SDS011;38322;53.108;6.308;2024-01-06T17:37:30;13.02;;;8.73;;
52396;SDS011;38322;53.108;6.308;2024-01-06T17:39:56;11.93;;;8.63;;
52396;SDS011;38322;53.108;6.308;2024-01-06T17:42:22;15.73;;;10.38;;
52396;SDS011;38322;53.108;6.308;2024-01-06T17:44:50;14.45;;;9.77;;
52396;SDS011;38322;53.108;6.308;2024-01-06T17:47:16;14.60;;;9.82;;
52396;SDS011;38322;53.108;6.308;2024-01-06T17:49:42;17.40;;;10.85;;
52396;SDS011;38322;53.108;6.308;2024-01-06T17:52:08;15.70;;;9.30;;
52396;SDS011;38322;53.108;6.308;2024-01-06T17:54:36;13.88;;;10.20;;
52396;SDS011;38322;53.108;6.308;2024-01-06T17:57:03;14.77;;;9.25;;
52396;SDS011;38322;53.108;6.308;2024-01-06T17:59:29;13.25;;;9.60;;
52396;SDS011;38322;53.108;6.308;2024-01-06T18:01:57;13.55;;;10.88;;
52396;SDS011;38322;53.108;6.308;2024-01-06T18:04:24;12.68;;;8.63;;
52396;SDS011;38322;53.108;6.308;2024-01-06T18:06:50;11.65;;;8.50;;
52396;SDS011;38322;53.108;6.308;2024-01-06T18:09:16;13.65;;;10.00;;
52396;SDS011;38322;53.108;6.308;2024-01-06T18:11:45;13.43;;;8.75;;
52396;SDS011;38322;53.108;6.308;2024-01-06T18:14:13;17.38;;;10.60;;
52396;SDS011;38322;53.108;6.308;2024-01-06T18:16:40;18.02;;;10.43;;
52396;SDS011;38322;53.108;6.308;2024-01-06T18:19:06;14.45;;;9.55;;
52396;SDS011;38322;53.108;6.308;2024-01-06T18:21:32;11.02;;;8.90;;
52396;SDS011;38322;53.108;6.308;2024-01-06T18:23:58;13.18;;;9.80;;
52396;SDS011;38322;53.108;6.308;2024-01-06T18:26:24;12.57;;;9.52;;
52396;SDS011;38322;53.108;6.308;2024-01-06T18:28:51;13.93;;;9.57;;
52396;SDS011;38322;53.108;6.308;2024-01-06T18:31:17;14.30;;;9.15;;
52396;SDS011;38322;53.108;6.308;2024-01-06T18:33:42;17.08;;;8.68;;
52396;SDS011;38322;53.108;6.308;2024-01-06T18:36:08;11.18;;;8.75;;
52396;SDS011;38322;53.108;6.308;2024-01-06T18:38:34;16.35;;;9.50;;
52396;SDS011;38322;53.108;6.308;2024-01-06T18:41:00;12.50;;;8.73;;
52396;SDS011;38322;53.108;6.308;2024-01-06T18:43:26;14.45;;;9.38;;
52396;SDS011;38322;53.108;6.308;2024-01-06T18:45:53;12.60;;;8.20;;
52396;SDS011;38322;53.108;6.308;2024-01-06T18:48:19;10.23;;;7.32;;
52396;SDS011;38322;53.108;6.308;2024-01-06T18:50:46;16.08;;;8.63;;
52396;SDS011;38322;53.108;6.308;2024-01-06T18:53:12;11.20;;;7.60;;
52396;SDS011;38322;53.108;6.308;2024-01-06T18:55:39;10.88;;;7.47;;
52396;SDS011;38322;53.108;6.308;2024-01-06T18:58:05;15.07;;;9.05;;
52396;SDS011;38322;53.108;6.308;2024-01-06T19:00:31;14.38;;;8.38;;
52396;SDS011;38322;53.108;6.308;2024-01-06T19:02:58;13.95;;;9.25;;
52396;SDS011;38322;53.108;6.308;2024-01-06T19:05:26;12.40;;;9.00;;
52396;SDS011;38322;53.108;6.308;2024-01-06T19:07:55;12.23;;;8.60;;
52396;SDS011;38322;53.108;6.308;2024-01-06T19:10:21;13.57;;;7.88;;
52396;SDS011;38322;53.108;6.308;2024-01-06T19:12:47;11.32;;;6.95;;
52396;SDS011;38322;53.108;6.308;2024-01-06T19:15:13;10.90;;;6.90;;
52396;SDS011;38322;53.108;6.308;2024-01-06T19:17:39;10.65;;;7.45;;
52396;SDS011;38322;53.108;6.308;2024-01-06T19:20:11;10.65;;;7.32;;
52396;SDS011;38322;53.108;6.308;2024-01-06T19:22:37;10.43;;;7.00;;
52396;SDS011;38322;53.108;6.308;2024-01-06T19:25:04;9.98;;;6.90;;
52396;SDS011;38322;53.108;6.308;2024-01-06T19:27:33;11.63;;;7.15;;
52396;SDS011;38322;53.108;6.308;2024-01-06T19:29:59;9.20;;;7.35;;
52396;SDS011;38322;53.108;6.308;2024-01-06T19:32:25;9.98;;;6.78;;
52396;SDS011;38322;53.108;6.308;2024-01-06T19:34:54;11.70;;;8.05;;
52396;SDS011;38322;53.108;6.308;2024-01-06T19:37:20;9.98;;;7.47;;
52396;SDS011;38322;53.108;6.308;2024-01-06T19:39:46;10.52;;;8.10;;
52396;SDS011;38322;53.108;6.308;2024-01-06T19:42:12;10.65;;;8.43;;
52396;SDS011;38322;53.108;6.308;2024-01-06T19:44:38;10.45;;;7.25;;
52396;SDS011;38322;53.108;6.308;2024-01-06T19:47:04;13.20;;;8.13;;
52396;SDS011;38322;53.108;6.308;2024-01-06T19:49:31;16.63;;;8.25;;
52396;SDS011;38322;53.108;6.308;2024-01-06T19:51:57;10.88;;;7.75;;
52396;SDS011;38322;53.108;6.308;2024-01-06T19:54:23;12.38;;;8.55;;
52396;SDS011;38322;53.108;6.308;2024-01-06T19:56:49;12.15;;;8.00;;
52396;SDS011;38322;53.108;6.308;2024-01-06T19:59:15;12.50;;;9.27;;
52396;SDS011;38322;53.108;6.308;2024-01-06T20:01:41;12.45;;;8.23;;
52396;SDS011;38322;53.108;6.308;2024-01-06T20:04:07;11.20;;;8.07;;
52396;SDS011;38322;53.108;6.308;2024-01-06T20:06:32;14.52;;;10.60;;
52396;SDS011;38322;53.108;6.308;2024-01-06T20:08:58;13.90;;;9.98;;
52396;SDS011;38322;53.108;6.308;2024-01-06T20:11:24;14.23;;;9.98;;
52396;SDS011;38322;53.108;6.308;2024-01-06T20:13:50;13.95;;;9.40;;
52396;SDS011;38322;53.108;6.308;2024-01-06T20:16:17;15.25;;;11.55;;
52396;SDS011;38322;53.108;6.308;2024-01-06T20:18:43;14.65;;;9.63;;
52396;SDS011;38322;53.108;6.308;2024-01-06T20:21:09;15.65;;;9.35;;
52396;SDS011;38322;53.108;6.308;2024-01-06T20:23:38;15.63;;;10.00;;
52396;SDS011;38322;53.108;6.308;2024-01-06T20:26:04;15.35;;;9.82;;
52396;SDS011;38322;53.108;6.308;2024-01-06T20:28:30;14.35;;;9.73;;
52396;SDS011;38322;53.108;6.308;2024-01-06T20:30:56;16.58;;;10.25;;
52396;SDS011;38322;53.108;6.308;2024-01-06T20:33:22;15.30;;;10.25;;
52396;SDS011;38322;53.108;6.308;2024-01-06T20:35:48;13.32;;;9.82;;